Pays
Station

 

Conditions  météo  pour  Juanjui  -  Pérou    Pérou

  
31 °C
    
 
 

METAR pour Juanjui :

SPJI 142100Z 19005KT 9999 FEW025 SCT200 31/25 Q1014 RMK TX32.0 PP000

 

Voici le bulletin pour Juanjui - Pérou.
 
Le bulletin a été fait il y a 4 heures et 46 minutes, à 21:00 UTC .
Le vent soufflait à la vitesse de 2.6 mètres par seconde de Sud (190°).
 
La température était de 31 °C, avec un point de rosée à 25 °C.
La température ressentie était de 38 °C.
 
La pression atmosphérique était de 1014 hPa.
L'humidité relative était de 70.5%.
 
Il y avait 1 à 2/8ème de nébulosité à une hauteur de 762 mètres et 3 à 4/8ème de nébulosité à une hauteur de 6096 mètres.
 
La visibilité globale était de supérieure à 10 kilomètres.
 

 
 
 

Pays :   A   B   C   D   E   F   G   H   I   J   K   L   M   N   O   P   Q   R   S   T   U   V   W   Y   Z

 

Partenaires :  Info Météo avec Met'info
Météo Marine avec MeteoMarine.net
Infos Site  |  Infos Légales  |  Crédits  |  Confidentialité
Contactez-nous  |  Ajouter aux favoris
© 2013-2018 METAR - Tous droits réservés